Terminal Aerodrome Forecast
Issued by NWS

Home | Current Version | Previous Version | Text Only | Print | Product List | Glossary On
Versions: 1 2 3 4 5 6 7 8 9 10 11 12 13 14 15 16 17 18 19 20 21 22 23 24 25 26 27 28 29 30 31 32 33
473
FTUS41 KOKX 181127
TAFHPN
TAF
KHPN 181127Z 1812/1912 VRB04KT P6SM BKN250
     FM181400 19006KT P6SM BKN150
     FM181800 20010G16KT P6SM VCSH SCT050 BKN100
     FM182300 21010KT 6SM -SHRA BR SCT015 BKN025
     FM190800 21022G32KT 3SM SHRA BR SCT007 BKN015
      AMD NOT SKED=

USA.gov is the U.S. government's official web portal to all federal, state and local government web resources and services.